sensor_id;sensor_type;location;lat;lon;timestamp;P1;durP1;ratioP1;P2;durP2;ratioP2
3841;SDS011;1936;47.074;15.336;2024-02-26T00:00:14;14.90;;;8.63;;
3841;SDS011;1936;47.074;15.336;2024-02-26T00:02:18;18.48;;;10.05;;
3841;SDS011;1936;47.074;15.336;2024-02-26T00:04:20;16.00;;;9.23;;
3841;SDS011;1936;47.074;15.336;2024-02-26T00:06:24;14.88;;;6.60;;
3841;SDS011;1936;47.074;15.336;2024-02-26T00:08:27;13.73;;;7.32;;
3841;SDS011;1936;47.074;15.336;2024-02-26T00:10:31;15.82;;;8.82;;
3841;SDS011;1936;47.074;15.336;2024-02-26T00:12:34;18.33;;;10.18;;
3841;SDS011;1936;47.074;15.336;2024-02-26T00:14:38;16.83;;;8.55;;
3841;SDS011;1936;47.074;15.336;2024-02-26T00:16:44;16.73;;;9.52;;
3841;SDS011;1936;47.074;15.336;2024-02-26T00:18:47;17.75;;;9.02;;
3841;SDS011;1936;47.074;15.336;2024-02-26T00:20:51;12.93;;;7.63;;
3841;SDS011;1936;47.074;15.336;2024-02-26T00:22:55;20.02;;;11.40;;
3841;SDS011;1936;47.074;15.336;2024-02-26T00:24:59;18.73;;;9.30;;
3841;SDS011;1936;47.074;15.336;2024-02-26T00:27:02;17.02;;;9.30;;
3841;SDS011;1936;47.074;15.336;2024-02-26T00:29:06;15.63;;;10.40;;
3841;SDS011;1936;47.074;15.336;2024-02-26T00:31:09;15.48;;;8.50;;
3841;SDS011;1936;47.074;15.336;2024-02-26T00:33:16;16.90;;;9.68;;
3841;SDS011;1936;47.074;15.336;2024-02-26T00:35:20;19.45;;;7.07;;
3841;SDS011;1936;47.074;15.336;2024-02-26T00:37:24;10.82;;;5.78;;
3841;SDS011;1936;47.074;15.336;2024-02-26T00:39:27;12.32;;;8.60;;
3841;SDS011;1936;47.074;15.336;2024-02-26T00:41:29;10.10;;;6.90;;
3841;SDS011;1936;47.074;15.336;2024-02-26T00:43:33;10.80;;;6.20;;
3841;SDS011;1936;47.074;15.336;2024-02-26T00:45:37;12.15;;;6.55;;
3841;SDS011;1936;47.074;15.336;2024-02-26T00:47:40;10.70;;;6.88;;
3841;SDS011;1936;47.074;15.336;2024-02-26T00:49:45;9.95;;;6.40;;
3841;SDS011;1936;47.074;15.336;2024-02-26T00:51:49;10.77;;;6.80;;
3841;SDS011;1936;47.074;15.336;2024-02-26T00:53:52;9.20;;;6.60;;
3841;SDS011;1936;47.074;15.336;2024-02-26T00:55:56;17.25;;;7.00;;
3841;SDS011;1936;47.074;15.336;2024-02-26T00:58:00;11.60;;;7.72;;
3841;SDS011;1936;47.074;15.336;2024-02-26T01:00:04;12.82;;;7.03;;
3841;SDS011;1936;47.074;15.336;2024-02-26T01:02:10;11.02;;;6.90;;
3841;SDS011;1936;47.074;15.336;2024-02-26T01:04:14;10.85;;;6.35;;
3841;SDS011;1936;47.074;15.336;2024-02-26T01:06:18;12.10;;;6.57;;
3841;SDS011;1936;47.074;15.336;2024-02-26T01:08:24;12.38;;;6.97;;
3841;SDS011;1936;47.074;15.336;2024-02-26T01:10:27;11.85;;;7.18;;
3841;SDS011;1936;47.074;15.336;2024-02-26T01:12:31;9.40;;;5.55;;
3841;SDS011;1936;47.074;15.336;2024-02-26T01:14:35;12.82;;;6.60;;
3841;SDS011;1936;47.074;15.336;2024-02-26T01:16:38;9.55;;;5.05;;
3841;SDS011;1936;47.074;15.336;2024-02-26T01:18:42;8.35;;;5.85;;
3841;SDS011;1936;47.074;15.336;2024-02-26T01:20:46;9.70;;;5.82;;
3841;SDS011;1936;47.074;15.336;2024-02-26T01:22:50;7.57;;;4.15;;
3841;SDS011;1936;47.074;15.336;2024-02-26T01:24:54;11.55;;;6.50;;
3841;SDS011;1936;47.074;15.336;2024-02-26T01:26:58;9.70;;;6.60;;
3841;SDS011;1936;47.074;15.336;2024-02-26T01:29:01;6.28;;;4.95;;
3841;SDS011;1936;47.074;15.336;2024-02-26T01:31:05;12.35;;;6.70;;
3841;SDS011;1936;47.074;15.336;2024-02-26T01:33:10;10.48;;;4.85;;
3841;SDS011;1936;47.074;15.336;2024-02-26T01:35:13;9.18;;;5.53;;
3841;SDS011;1936;47.074;15.336;2024-02-26T01:37:17;8.38;;;5.30;;
3841;SDS011;1936;47.074;15.336;2024-02-26T01:39:22;7.80;;;4.70;;
3841;SDS011;1936;47.074;15.336;2024-02-26T01:41:26;9.32;;;6.10;;
3841;SDS011;1936;47.074;15.336;2024-02-26T01:43:28;10.57;;;5.97;;
3841;SDS011;1936;47.074;15.336;2024-02-26T01:45:32;9.00;;;5.15;;
3841;SDS011;1936;47.074;15.336;2024-02-26T01:47:35;7.60;;;4.50;;
3841;SDS011;1936;47.074;15.336;2024-02-26T01:49:39;7.20;;;4.63;;
3841;SDS011;1936;47.074;15.336;2024-02-26T01:51:43;11.07;;;6.25;;
3841;SDS011;1936;47.074;15.336;2024-02-26T01:53:47;11.05;;;5.13;;
3841;SDS011;1936;47.074;15.336;2024-02-26T01:55:52;8.30;;;5.47;;
3841;SDS011;1936;47.074;15.336;2024-02-26T01:57:56;8.18;;;5.43;;
3841;SDS011;1936;47.074;15.336;2024-02-26T02:00:00;8.13;;;5.43;;
3841;SDS011;1936;47.074;15.336;2024-02-26T02:02:07;8.15;;;5.03;;
3841;SDS011;1936;47.074;15.336;2024-02-26T02:04:19;7.78;;;4.75;;
3841;SDS011;1936;47.074;15.336;2024-02-26T02:06:27;12.38;;;6.65;;
3841;SDS011;1936;47.074;15.336;2024-02-26T02:08:31;12.88;;;5.22;;
3841;SDS011;1936;47.074;15.336;2024-02-26T02:10:36;14.75;;;5.70;;
3841;SDS011;1936;47.074;15.336;2024-02-26T02:12:43;6.05;;;5.32;;
3841;SDS011;1936;47.074;15.336;2024-02-26T02:14:46;7.70;;;5.32;;
3841;SDS011;1936;47.074;15.336;2024-02-26T02:16:50;9.68;;;4.43;;
3841;SDS011;1936;47.074;15.336;2024-02-26T02:18:53;8.23;;;4.97;;
3841;SDS011;1936;47.074;15.336;2024-02-26T02:20:58;3.72;;;3.40;;
3841;SDS011;1936;47.074;15.336;2024-02-26T02:23:03;8.13;;;4.15;;
3841;SDS011;1936;47.074;15.336;2024-02-26T02:25:07;11.30;;;6.05;;
3841;SDS011;1936;47.074;15.336;2024-02-26T02:27:10;6.68;;;4.43;;
3841;SDS011;1936;47.074;15.336;2024-02-26T02:29:13;6.50;;;4.82;;
3841;SDS011;1936;47.074;15.336;2024-02-26T02:31:17;8.65;;;4.65;;
3841;SDS011;1936;47.074;15.336;2024-02-26T02:33:21;6.95;;;4.45;;
3841;SDS011;1936;47.074;15.336;2024-02-26T02:35:26;7.35;;;4.50;;
3841;SDS011;1936;47.074;15.336;2024-02-26T02:37:31;5.55;;;3.65;;
3841;SDS011;1936;47.074;15.336;2024-02-26T02:39:33;7.88;;;3.90;;
3841;SDS011;1936;47.074;15.336;2024-02-26T02:41:37;6.43;;;3.63;;
3841;SDS011;1936;47.074;15.336;2024-02-26T02:43:40;3.75;;;2.88;;
3841;SDS011;1936;47.074;15.336;2024-02-26T02:45:44;4.70;;;2.80;;
3841;SDS011;1936;47.074;15.336;2024-02-26T02:47:47;4.05;;;2.63;;
3841;SDS011;1936;47.074;15.336;2024-02-26T02:49:51;9.10;;;3.95;;
3841;SDS011;1936;47.074;15.336;2024-02-26T02:51:55;2.72;;;2.53;;
3841;SDS011;1936;47.074;15.336;2024-02-26T02:54:00;2.60;;;2.17;;
3841;SDS011;1936;47.074;15.336;2024-02-26T02:56:04;8.90;;;2.65;;
3841;SDS011;1936;47.074;15.336;2024-02-26T02:58:08;3.22;;;2.20;;
3841;SDS011;1936;47.074;15.336;2024-02-26T03:00:12;2.45;;;2.15;;
3841;SDS011;1936;47.074;15.336;2024-02-26T03:02:16;3.67;;;1.63;;
3841;SDS011;1936;47.074;15.336;2024-02-26T03:04:18;5.80;;;2.85;;
3841;SDS011;1936;47.074;15.336;2024-02-26T03:06:22;4.75;;;2.13;;
3841;SDS011;1936;47.074;15.336;2024-02-26T03:08:28;4.03;;;2.40;;
3841;SDS011;1936;47.074;15.336;2024-02-26T03:10:33;2.70;;;2.50;;
3841;SDS011;1936;47.074;15.336;2024-02-26T03:12:37;3.30;;;2.75;;
3841;SDS011;1936;47.074;15.336;2024-02-26T03:14:40;4.30;;;2.58;;
3841;SDS011;1936;47.074;15.336;2024-02-26T03:16:44;3.22;;;2.42;;
3841;SDS011;1936;47.074;15.336;2024-02-26T03:18:47;2.55;;;2.35;;
3841;SDS011;1936;47.074;15.336;2024-02-26T03:20:51;4.32;;;2.78;;
3841;SDS011;1936;47.074;15.336;2024-02-26T03:22:55;2.10;;;1.90;;
3841;SDS011;1936;47.074;15.336;2024-02-26T03:24:57;4.60;;;2.50;;
3841;SDS011;1936;47.074;15.336;2024-02-26T03:27:02;3.58;;;2.72;;
3841;SDS011;1936;47.074;15.336;2024-02-26T03:29:11;2.38;;;1.48;;
3841;SDS011;1936;47.074;15.336;2024-02-26T03:31:14;3.30;;;2.20;;
3841;SDS011;1936;47.074;15.336;2024-02-26T03:33:18;2.08;;;1.70;;
3841;SDS011;1936;47.074;15.336;2024-02-26T03:35:21;2.78;;;2.25;;
3841;SDS011;1936;47.074;15.336;2024-02-26T03:37:25;2.58;;;2.00;;
3841;SDS011;1936;47.074;15.336;2024-02-26T03:39:28;9.75;;;3.03;;
3841;SDS011;1936;47.074;15.336;2024-02-26T03:41:32;2.25;;;2.03;;
3841;SDS011;1936;47.074;15.336;2024-02-26T03:43:37;5.47;;;3.10;;
3841;SDS011;1936;47.074;15.336;2024-02-26T03:45:41;3.40;;;2.40;;
3841;SDS011;1936;47.074;15.336;2024-02-26T03:47:44;3.22;;;2.80;;
3841;SDS011;1936;47.074;15.336;2024-02-26T03:49:47;7.38;;;2.90;;
3841;SDS011;1936;47.074;15.336;2024-02-26T03:51:51;4.50;;;3.28;;
3841;SDS011;1936;47.074;15.336;2024-02-26T03:53:54;4.45;;;3.00;;
3841;SDS011;1936;47.074;15.336;2024-02-26T03:55:57;3.58;;;2.53;;
3841;SDS011;1936;47.074;15.336;2024-02-26T03:58:05;3.20;;;2.80;;
3841;SDS011;1936;47.074;15.336;2024-02-26T04:00:10;4.10;;;2.47;;
3841;SDS011;1936;47.074;15.336;2024-02-26T04:02:14;3.00;;;2.40;;
3841;SDS011;1936;47.074;15.336;2024-02-26T04:04:21;4.18;;;2.83;;
3841;SDS011;1936;47.074;15.336;2024-02-26T04:06:24;6.50;;;2.72;;
3841;SDS011;1936;47.074;15.336;2024-02-26T04:08:28;6.97;;;3.50;;
3841;SDS011;1936;47.074;15.336;2024-02-26T04:10:31;5.72;;;3.20;;
3841;SDS011;1936;47.074;15.336;2024-02-26T04:12:38;6.22;;;2.63;;
3841;SDS011;1936;47.074;15.336;2024-02-26T04:14:42;4.40;;;2.70;;
3841;SDS011;1936;47.074;15.336;2024-02-26T04:16:47;3.60;;;2.83;;
3841;SDS011;1936;47.074;15.336;2024-02-26T04:18:53;4.65;;;3.65;;
3841;SDS011;1936;47.074;15.336;2024-02-26T04:20:56;3.78;;;3.47;;
3841;SDS011;1936;47.074;15.336;2024-02-26T04:22:59;12.23;;;3.60;;
3841;SDS011;1936;47.074;15.336;2024-02-26T04:25:03;3.75;;;3.35;;
3841;SDS011;1936;47.074;15.336;2024-02-26T04:27:07;4.70;;;3.45;;
3841;SDS011;1936;47.074;15.336;2024-02-26T04:29:10;4.30;;;2.97;;
3841;SDS011;1936;47.074;15.336;2024-02-26T04:31:14;2.40;;;2.20;;
3841;SDS011;1936;47.074;15.336;2024-02-26T04:33:19;3.67;;;2.47;;
3841;SDS011;1936;47.074;15.336;2024-02-26T04:35:23;3.38;;;2.60;;
3841;SDS011;1936;47.074;15.336;2024-02-26T04:37:26;2.75;;;2.30;;
3841;SDS011;1936;47.074;15.336;2024-02-26T04:39:33;3.72;;;3.42;;
3841;SDS011;1936;47.074;15.336;2024-02-26T04:41:36;3.65;;;2.67;;
3841;SDS011;1936;47.074;15.336;2024-02-26T04:43:40;3.20;;;2.80;;
3841;SDS011;1936;47.074;15.336;2024-02-26T04:45:43;3.53;;;3.22;;
3841;SDS011;1936;47.074;15.336;2024-02-26T04:47:46;5.68;;;2.75;;
3841;SDS011;1936;47.074;15.336;2024-02-26T04:49:51;2.70;;;2.35;;
3841;SDS011;1936;47.074;15.336;2024-02-26T04:51:55;2.95;;;2.60;;
3841;SDS011;1936;47.074;15.336;2024-02-26T04:53:58;3.50;;;2.83;;
3841;SDS011;1936;47.074;15.336;2024-02-26T04:56:01;5.45;;;2.97;;
3841;SDS011;1936;47.074;15.336;2024-02-26T04:58:05;3.10;;;2.85;;
3841;SDS011;1936;47.074;15.336;2024-02-26T05:00:08;3.30;;;2.70;;
3841;SDS011;1936;47.074;15.336;2024-02-26T05:02:13;8.07;;;2.58;;
3841;SDS011;1936;47.074;15.336;2024-02-26T05:04:17;3.35;;;2.50;;
3841;SDS011;1936;47.074;15.336;2024-02-26T05:06:22;4.70;;;3.20;;
3841;SDS011;1936;47.074;15.336;2024-02-26T05:08:25;5.55;;;3.40;;
3841;SDS011;1936;47.074;15.336;2024-02-26T05:10:28;6.43;;;4.78;;
3841;SDS011;1936;47.074;15.336;2024-02-26T05:12:31;4.35;;;3.95;;
3841;SDS011;1936;47.074;15.336;2024-02-26T05:14:36;4.35;;;3.53;;
3841;SDS011;1936;47.074;15.336;2024-02-26T05:16:40;6.55;;;3.83;;
3841;SDS011;1936;47.074;15.336;2024-02-26T05:18:43;4.50;;;3.40;;
3841;SDS011;1936;47.074;15.336;2024-02-26T05:20:47;3.47;;;2.63;;
3841;SDS011;1936;47.074;15.336;2024-02-26T05:22:52;4.90;;;3.60;;
3841;SDS011;1936;47.074;15.336;2024-02-26T05:24:54;4.43;;;3.42;;
3841;SDS011;1936;47.074;15.336;2024-02-26T05:26:58;3.92;;;3.45;;
3841;SDS011;1936;47.074;15.336;2024-02-26T05:29:02;7.32;;;3.42;;
3841;SDS011;1936;47.074;15.336;2024-02-26T05:31:06;4.55;;;3.47;;
3841;SDS011;1936;47.074;15.336;2024-02-26T05:33:09;3.30;;;2.95;;
3841;SDS011;1936;47.074;15.336;2024-02-26T05:35:16;2.85;;;2.45;;
3841;SDS011;1936;47.074;15.336;2024-02-26T05:37:19;5.15;;;2.97;;
3841;SDS011;1936;47.074;15.336;2024-02-26T05:39:24;4.35;;;2.83;;
3841;SDS011;1936;47.074;15.336;2024-02-26T05:41:28;8.40;;;3.67;;
3841;SDS011;1936;47.074;15.336;2024-02-26T05:43:31;9.07;;;3.30;;
3841;SDS011;1936;47.074;15.336;2024-02-26T05:45:35;7.70;;;4.10;;
3841;SDS011;1936;47.074;15.336;2024-02-26T05:47:39;4.53;;;4.13;;
3841;SDS011;1936;47.074;15.336;2024-02-26T05:49:44;6.20;;;3.33;;
3841;SDS011;1936;47.074;15.336;2024-02-26T05:51:48;5.35;;;3.60;;
3841;SDS011;1936;47.074;15.336;2024-02-26T05:53:51;4.07;;;3.70;;
3841;SDS011;1936;47.074;15.336;2024-02-26T05:55:58;4.65;;;3.63;;
3841;SDS011;1936;47.074;15.336;2024-02-26T05:58:01;6.43;;;3.65;;
3841;SDS011;1936;47.074;15.336;2024-02-26T06:00:05;6.38;;;3.83;;
3841;SDS011;1936;47.074;15.336;2024-02-26T06:02:14;5.10;;;4.60;;
3841;SDS011;1936;47.074;15.336;2024-02-26T06:04:18;5.57;;;4.55;;
3841;SDS011;1936;47.074;15.336;2024-02-26T06:06:22;10.13;;;4.20;;
3841;SDS011;1936;47.074;15.336;2024-02-26T06:08:25;5.22;;;4.22;;
3841;SDS011;1936;47.074;15.336;2024-02-26T06:11:17;4.60;;;3.33;;
3841;SDS011;1936;47.074;15.336;2024-02-26T06:13:21;5.05;;;4.28;;
3841;SDS011;1936;47.074;15.336;2024-02-26T06:15:25;8.00;;;4.28;;
3841;SDS011;1936;47.074;15.336;2024-02-26T06:17:28;6.25;;;4.90;;
3841;SDS011;1936;47.074;15.336;2024-02-26T06:19:31;8.38;;;5.13;;
3841;SDS011;1936;47.074;15.336;2024-02-26T06:21:35;5.22;;;3.80;;
3841;SDS011;1936;47.074;15.336;2024-02-26T06:23:39;5.22;;;3.65;;
3841;SDS011;1936;47.074;15.336;2024-02-26T06:25:42;5.63;;;4.10;;
3841;SDS011;1936;47.074;15.336;2024-02-26T06:27:46;5.43;;;4.50;;
3841;SDS011;1936;47.074;15.336;2024-02-26T06:29:50;6.22;;;3.75;;
3841;SDS011;1936;47.074;15.336;2024-02-26T06:31:57;6.53;;;4.03;;
3841;SDS011;1936;47.074;15.336;2024-02-26T06:34:01;5.28;;;4.32;;
3841;SDS011;1936;47.074;15.336;2024-02-26T06:36:05;6.25;;;4.13;;
3841;SDS011;1936;47.074;15.336;2024-02-26T06:38:07;3.80;;;3.40;;
3841;SDS011;1936;47.074;15.336;2024-02-26T06:40:13;5.95;;;4.35;;
3841;SDS011;1936;47.074;15.336;2024-02-26T06:42:16;6.60;;;4.45;;
3841;SDS011;1936;47.074;15.336;2024-02-26T06:44:21;4.43;;;3.70;;
3841;SDS011;1936;47.074;15.336;2024-02-26T06:46:24;4.53;;;3.60;;
3841;SDS011;1936;47.074;15.336;2024-02-26T06:48:27;4.82;;;4.40;;
3841;SDS011;1936;47.074;15.336;2024-02-26T06:50:31;5.20;;;4.50;;
3841;SDS011;1936;47.074;15.336;2024-02-26T06:52:34;6.28;;;5.15;;
3841;SDS011;1936;47.074;15.336;2024-02-26T06:54:38;7.07;;;5.07;;
3841;SDS011;1936;47.074;15.336;2024-02-26T06:56:41;5.45;;;4.75;;
3841;SDS011;1936;47.074;15.336;2024-02-26T06:58:45;11.00;;;5.55;;
3841;SDS011;1936;47.074;15.336;2024-02-26T07:00:49;8.02;;;4.80;;
3841;SDS011;1936;47.074;15.336;2024-02-26T07:02:53;9.60;;;4.63;;
3841;SDS011;1936;47.074;15.336;2024-02-26T07:04:56;7.45;;;5.05;;
3841;SDS011;1936;47.074;15.336;2024-02-26T07:07:00;6.30;;;4.45;;
3841;SDS011;1936;47.074;15.336;2024-02-26T07:09:04;5.32;;;4.15;;
3841;SDS011;1936;47.074;15.336;2024-02-26T07:11:07;6.47;;;3.88;;
3841;SDS011;1936;47.074;15.336;2024-02-26T07:13:11;5.65;;;4.50;;
3841;SDS011;1936;47.074;15.336;2024-02-26T07:15:15;11.90;;;5.43;;
3841;SDS011;1936;47.074;15.336;2024-02-26T07:17:20;4.30;;;3.80;;
3841;SDS011;1936;47.074;15.336;2024-02-26T07:19:22;5.72;;;4.90;;
3841;SDS011;1936;47.074;15.336;2024-02-26T07:21:26;4.75;;;4.25;;
3841;SDS011;1936;47.074;15.336;2024-02-26T07:23:30;5.47;;;3.00;;
3841;SDS011;1936;47.074;15.336;2024-02-26T07:25:33;4.15;;;3.22;;
3841;SDS011;1936;47.074;15.336;2024-02-26T07:27:36;4.40;;;3.40;;
3841;SDS011;1936;47.074;15.336;2024-02-26T07:29:40;3.80;;;3.50;;
3841;SDS011;1936;47.074;15.336;2024-02-26T07:31:43;10.52;;;3.95;;
3841;SDS011;1936;47.074;15.336;2024-02-26T07:33:48;4.30;;;3.17;;
3841;SDS011;1936;47.074;15.336;2024-02-26T07:35:52;6.25;;;3.85;;
3841;SDS011;1936;47.074;15.336;2024-02-26T07:37:56;8.55;;;4.10;;
3841;SDS011;1936;47.074;15.336;2024-02-26T07:40:00;5.13;;;3.78;;
3841;SDS011;1936;47.074;15.336;2024-02-26T07:42:04;3.40;;;3.03;;
3841;SDS011;1936;47.074;15.336;2024-02-26T07:44:09;3.13;;;2.73;;
3841;SDS011;1936;47.074;15.336;2024-02-26T07:46:13;3.33;;;2.53;;
3841;SDS011;1936;47.074;15.336;2024-02-26T07:48:17;8.00;;;2.37;;
3841;SDS011;1936;47.074;15.336;2024-02-26T07:50:22;2.30;;;1.67;;
3841;SDS011;1936;47.074;15.336;2024-02-26T07:52:26;3.23;;;2.50;;
3841;SDS011;1936;47.074;15.336;2024-02-26T07:54:29;3.07;;;2.50;;
3841;SDS011;1936;47.074;15.336;2024-02-26T07:56:33;6.83;;;4.20;;
3841;SDS011;1936;47.074;15.336;2024-02-26T07:58:36;6.30;;;4.07;;
3841;SDS011;1936;47.074;15.336;2024-02-26T08:00:40;2.30;;;1.90;;
3841;SDS011;1936;47.074;15.336;2024-02-26T08:02:43;6.23;;;2.37;;
3841;SDS011;1936;47.074;15.336;2024-02-26T08:04:46;5.47;;;2.10;;
3841;SDS011;1936;47.074;15.336;2024-02-26T08:06:51;7.67;;;2.43;;
3841;SDS011;1936;47.074;15.336;2024-02-26T08:08:54;3.00;;;2.50;;
3841;SDS011;1936;47.074;15.336;2024-02-26T08:10:58;4.37;;;2.40;;
3841;SDS011;1936;47.074;15.336;2024-02-26T08:13:01;4.70;;;2.40;;
3841;SDS011;1936;47.074;15.336;2024-02-26T08:15:08;2.80;;;2.17;;
3841;SDS011;1936;47.074;15.336;2024-02-26T08:17:12;3.33;;;1.87;;
3841;SDS011;1936;47.074;15.336;2024-02-26T08:19:15;2.97;;;1.63;;
3841;SDS011;1936;47.074;15.336;2024-02-26T08:21:19;3.73;;;2.53;;
3841;SDS011;1936;47.074;15.336;2024-02-26T08:23:24;3.03;;;1.83;;
3841;SDS011;1936;47.074;15.336;2024-02-26T08:25:28;4.03;;;2.50;;
3841;SDS011;1936;47.074;15.336;2024-02-26T08:27:31;2.77;;;2.53;;
3841;SDS011;1936;47.074;15.336;2024-02-26T08:29:34;5.93;;;2.00;;
3841;SDS011;1936;47.074;15.336;2024-02-26T08:31:38;9.13;;;2.30;;
3841;SDS011;1936;47.074;15.336;2024-02-26T08:33:41;3.30;;;2.60;;
3841;SDS011;1936;47.074;15.336;2024-02-26T08:35:45;4.83;;;2.73;;
3841;SDS011;1936;47.074;15.336;2024-02-26T08:37:48;3.10;;;1.70;;
3841;SDS011;1936;47.074;15.336;2024-02-26T08:39:53;1.60;;;1.20;;
3841;SDS011;1936;47.074;15.336;2024-02-26T08:41:57;4.53;;;1.83;;
3841;SDS011;1936;47.074;15.336;2024-02-26T08:44:00;2.10;;;1.33;;
3841;SDS011;1936;47.074;15.336;2024-02-26T08:46:04;2.87;;;2.00;;
3841;SDS011;1936;47.074;15.336;2024-02-26T08:48:09;2.30;;;1.50;;
3841;SDS011;1936;47.074;15.336;2024-02-26T08:50:13;4.33;;;2.17;;
3841;SDS011;1936;47.074;15.336;2024-02-26T08:52:17;3.13;;;2.30;;
3841;SDS011;1936;47.074;15.336;2024-02-26T08:54:20;5.50;;;2.10;;
3841;SDS011;1936;47.074;15.336;2024-02-26T08:56:29;3.47;;;2.30;;
3841;SDS011;1936;47.074;15.336;2024-02-26T08:58:32;3.60;;;2.97;;
3841;SDS011;1936;47.074;15.336;2024-02-26T09:00:35;2.70;;;2.00;;
3841;SDS011;1936;47.074;15.336;2024-02-26T09:02:39;3.63;;;2.60;;
3841;SDS011;1936;47.074;15.336;2024-02-26T09:04:44;3.83;;;2.63;;
3841;SDS011;1936;47.074;15.336;2024-02-26T09:06:47;3.40;;;2.70;;
3841;SDS011;1936;47.074;15.336;2024-02-26T09:08:50;4.93;;;2.70;;
3841;SDS011;1936;47.074;15.336;2024-02-26T09:10:53;4.17;;;2.70;;
3841;SDS011;1936;47.074;15.336;2024-02-26T09:12:58;5.67;;;2.80;;
3841;SDS011;1936;47.074;15.336;2024-02-26T09:15:01;4.33;;;2.40;;
3841;SDS011;1936;47.074;15.336;2024-02-26T09:17:05;6.87;;;2.40;;
3841;SDS011;1936;47.074;15.336;2024-02-26T09:19:09;4.60;;;3.20;;
3841;SDS011;1936;47.074;15.336;2024-02-26T09:21:13;7.20;;;3.13;;
3841;SDS011;1936;47.074;15.336;2024-02-26T09:23:17;4.87;;;2.40;;
3841;SDS011;1936;47.074;15.336;2024-02-26T09:25:20;2.90;;;2.30;;
3841;SDS011;1936;47.074;15.336;2024-02-26T09:27:24;3.20;;;2.50;;
3841;SDS011;1936;47.074;15.336;2024-02-26T09:29:28;6.40;;;3.77;;
3841;SDS011;1936;47.074;15.336;2024-02-26T09:31:31;4.97;;;3.00;;
3841;SDS011;1936;47.074;15.336;2024-02-26T09:33:35;4.13;;;2.47;;
3841;SDS011;1936;47.074;15.336;2024-02-26T09:35:39;6.03;;;2.90;;
3841;SDS011;1936;47.074;15.336;2024-02-26T09:37:43;4.00;;;2.93;;
3841;SDS011;1936;47.074;15.336;2024-02-26T09:39:46;5.63;;;2.40;;
3841;SDS011;1936;47.074;15.336;2024-02-26T09:41:50;4.43;;;2.23;;
3841;SDS011;1936;47.074;15.336;2024-02-26T09:43:54;5.87;;;2.33;;
3841;SDS011;1936;47.074;15.336;2024-02-26T09:46:02;4.73;;;2.30;;
3841;SDS011;1936;47.074;15.336;2024-02-26T09:48:06;2.80;;;2.10;;
3841;SDS011;1936;47.074;15.336;2024-02-26T09:50:12;2.83;;;2.37;;
3841;SDS011;1936;47.074;15.336;2024-02-26T09:52:16;3.87;;;2.17;;
3841;SDS011;1936;47.074;15.336;2024-02-26T09:54:21;2.60;;;2.03;;
3841;SDS011;1936;47.074;15.336;2024-02-26T09:56:28;3.97;;;2.27;;
3841;SDS011;1936;47.074;15.336;2024-02-26T09:58:34;2.70;;;2.50;;
3841;SDS011;1936;47.074;15.336;2024-02-26T10:00:39;2.23;;;1.37;;
3841;SDS011;1936;47.074;15.336;2024-02-26T10:02:45;2.17;;;1.40;;
3841;SDS011;1936;47.074;15.336;2024-02-26T10:04:49;2.63;;;1.80;;
3841;SDS011;1936;47.074;15.336;2024-02-26T10:06:55;2.63;;;1.57;;
3841;SDS011;1936;47.074;15.336;2024-02-26T10:09:01;3.30;;;1.47;;
3841;SDS011;1936;47.074;15.336;2024-02-26T10:11:07;1.73;;;1.63;;
3841;SDS011;1936;47.074;15.336;2024-02-26T10:13:10;2.53;;;2.13;;
3841;SDS011;1936;47.074;15.336;2024-02-26T10:15:13;2.57;;;2.00;;
3841;SDS011;1936;47.074;15.336;2024-02-26T10:17:17;2.60;;;1.70;;
3841;SDS011;1936;47.074;15.336;2024-02-26T10:19:26;2.07;;;1.47;;
3841;SDS011;1936;47.074;15.336;2024-02-26T10:21:30;5.03;;;1.70;;
3841;SDS011;1936;47.074;15.336;2024-02-26T10:23:34;2.53;;;1.70;;
3841;SDS011;1936;47.074;15.336;2024-02-26T10:25:38;3.33;;;1.63;;
3841;SDS011;1936;47.074;15.336;2024-02-26T10:27:55;4.00;;;1.70;;
3841;SDS011;1936;47.074;15.336;2024-02-26T10:30:03;2.90;;;2.07;;
3841;SDS011;1936;47.074;15.336;2024-02-26T10:32:19;3.47;;;1.67;;
3841;SDS011;1936;47.074;15.336;2024-02-26T10:34:23;4.47;;;1.83;;
3841;SDS011;1936;47.074;15.336;2024-02-26T10:36:29;3.40;;;1.17;;
3841;SDS011;1936;47.074;15.336;2024-02-26T10:38:48;3.70;;;1.70;;
3841;SDS011;1936;47.074;15.336;2024-02-26T10:40:55;2.60;;;1.70;;
3841;SDS011;1936;47.074;15.336;2024-02-26T10:42:58;3.20;;;2.13;;
3841;SDS011;1936;47.074;15.336;2024-02-26T10:45:02;4.30;;;2.07;;
3841;SDS011;1936;47.074;15.336;2024-02-26T10:47:07;3.40;;;2.03;;
3841;SDS011;1936;47.074;15.336;2024-02-26T10:49:13;7.77;;;2.87;;
3841;SDS011;1936;47.074;15.336;2024-02-26T10:51:20;6.40;;;2.37;;
3841;SDS011;1936;47.074;15.336;2024-02-26T10:53:29;3.43;;;1.97;;
3841;SDS011;1936;47.074;15.336;2024-02-26T10:55:33;5.73;;;2.27;;
3841;SDS011;1936;47.074;15.336;2024-02-26T10:57:39;2.90;;;1.90;;
3841;SDS011;1936;47.074;15.336;2024-02-26T10:59:45;3.80;;;3.10;;
3841;SDS011;1936;47.074;15.336;2024-02-26T11:01:48;4.07;;;2.10;;
3841;SDS011;1936;47.074;15.336;2024-02-26T11:03:53;10.27;;;3.37;;
3841;SDS011;1936;47.074;15.336;2024-02-26T11:05:57;3.43;;;2.53;;
3841;SDS011;1936;47.074;15.336;2024-02-26T11:08:03;4.77;;;3.17;;
3841;SDS011;1936;47.074;15.336;2024-02-26T11:10:09;4.43;;;2.83;;
3841;SDS011;1936;47.074;15.336;2024-02-26T11:12:13;5.00;;;2.90;;
3841;SDS011;1936;47.074;15.336;2024-02-26T11:14:17;7.47;;;3.10;;
3841;SDS011;1936;47.074;15.336;2024-02-26T11:16:20;4.33;;;2.70;;
3841;SDS011;1936;47.074;15.336;2024-02-26T11:18:24;5.30;;;2.70;;
3841;SDS011;1936;47.074;15.336;2024-02-26T11:20:30;7.73;;;3.03;;
3841;SDS011;1936;47.074;15.336;2024-02-26T11:22:36;8.23;;;2.53;;
3841;SDS011;1936;47.074;15.336;2024-02-26T11:24:39;2.87;;;2.00;;
3841;SDS011;1936;47.074;15.336;2024-02-26T11:26:46;4.40;;;2.27;;
3841;SDS011;1936;47.074;15.336;2024-02-26T11:28:57;8.60;;;3.07;;
3841;SDS011;1936;47.074;15.336;2024-02-26T11:31:01;4.87;;;1.80;;
3841;SDS011;1936;47.074;15.336;2024-02-26T11:33:06;2.60;;;1.70;;
3841;SDS011;1936;47.074;15.336;2024-02-26T11:35:10;6.13;;;1.70;;
3841;SDS011;1936;47.074;15.336;2024-02-26T11:37:17;2.87;;;1.97;;
3841;SDS011;1936;47.074;15.336;2024-02-26T11:39:20;1.77;;;1.67;;
3841;SDS011;1936;47.074;15.336;2024-02-26T11:41:24;4.10;;;2.00;;
3841;SDS011;1936;47.074;15.336;2024-02-26T11:45:54;3.93;;;2.20;;
3841;SDS011;1936;47.074;15.336;2024-02-26T11:48:00;4.70;;;2.10;;
3841;SDS011;1936;47.074;15.336;2024-02-26T11:52:37;4.20;;;1.70;;
3841;SDS011;1936;47.074;15.336;2024-02-26T11:54:43;3.70;;;1.40;;
3841;SDS011;1936;47.074;15.336;2024-02-26T11:56:47;2.07;;;1.23;;
3841;SDS011;1936;47.074;15.336;2024-02-26T11:59:03;2.97;;;1.80;;
3841;SDS011;1936;47.074;15.336;2024-02-26T12:03:38;3.23;;;1.90;;
3841;SDS011;1936;47.074;15.336;2024-02-26T12:05:42;5.53;;;1.57;;
3841;SDS011;1936;47.074;15.336;2024-02-26T12:07:46;4.53;;;1.63;;
3841;SDS011;1936;47.074;15.336;2024-02-26T12:09:51;9.43;;;2.33;;
3841;SDS011;1936;47.074;15.336;2024-02-26T12:11:53;2.77;;;1.60;;
3841;SDS011;1936;47.074;15.336;2024-02-26T12:13:58;18.70;;;3.60;;
3841;SDS011;1936;47.074;15.336;2024-02-26T12:16:05;4.93;;;1.77;;
3841;SDS011;1936;47.074;15.336;2024-02-26T12:18:12;2.40;;;1.30;;
3841;SDS011;1936;47.074;15.336;2024-02-26T12:20:20;4.07;;;1.70;;
3841;SDS011;1936;47.074;15.336;2024-02-26T12:22:22;4.97;;;1.67;;
3841;SDS011;1936;47.074;15.336;2024-02-26T12:24:27;2.63;;;1.53;;
3841;SDS011;1936;47.074;15.336;2024-02-26T12:26:31;4.43;;;1.90;;
3841;SDS011;1936;47.074;15.336;2024-02-26T12:28:33;2.73;;;1.10;;
3841;SDS011;1936;47.074;15.336;2024-02-26T12:30:36;2.20;;;1.57;;
3841;SDS011;1936;47.074;15.336;2024-02-26T12:32:41;2.80;;;1.20;;
3841;SDS011;1936;47.074;15.336;2024-02-26T12:34:45;4.50;;;1.50;;
3841;SDS011;1936;47.074;15.336;2024-02-26T12:36:49;2.43;;;1.33;;
3841;SDS011;1936;47.074;15.336;2024-02-26T12:38:55;6.20;;;1.30;;
3841;SDS011;1936;47.074;15.336;2024-02-26T12:40:58;0.97;;;0.70;;
3841;SDS011;1936;47.074;15.336;2024-02-26T12:43:02;2.90;;;1.33;;
3841;SDS011;1936;47.074;15.336;2024-02-26T12:45:06;2.10;;;1.20;;
3841;SDS011;1936;47.074;15.336;2024-02-26T12:47:11;3.50;;;0.83;;